OAL017 LGKO-LGAV
Flight info
| Callsign | OAL017 |
|---|---|
| Flight time | 0h 39m |
| Altitude | 26000 |
| Route | KOPAR UL995 VARIX |
| Aircraft | A20N/M-SDE2E3FGHIRWXY/LB1 |
Departure
| Time | 2026-05-04 20:24 |
|---|---|
| Airport | Kos International Airport "Ippokratis" (LGKO) |
Arrival
| Time | 2026-05-04 21:04 |
|---|---|
| Airport | Athens Eleftherios Venizelos International Airport (LGAV) |
| Time | Latitude | Longitude | Altitude | Speed | Heading |
|---|---|---|---|---|---|
| 2026-05-04 20:11 | 36.80053 | 27.08991 | 431 ft | 0 kts | 88° |
| 2026-05-04 20:19 | 36.80052 | 27.08973 | 431 ft | 5 kts | 88° |
| 2026-05-04 20:19 | 36.80057 | 27.08933 | 428 ft | 5 kts | 128° |
| 2026-05-04 20:19 | 36.80061 | 27.08927 | 421 ft | 2 kts | 145° |
| 2026-05-04 20:20 | 36.80032 | 27.08951 | 421 ft | 6 kts | 150° |
| 2026-05-04 20:20 | 36.79973 | 27.08981 | 431 ft | 12 kts | 158° |
| 2026-05-04 20:20 | 36.79879 | 27.09016 | 425 ft | 15 kts | 174° |
| 2026-05-04 20:20 | 36.79766 | 27.09006 | 427 ft | 18 kts | 189° |
| 2026-05-04 20:21 | 36.79630 | 27.09002 | 428 ft | 19 kts | 163° |
| 2026-05-04 20:21 | 36.79501 | 27.09094 | 432 ft | 24 kts | 150° |
| 2026-05-04 20:21 | 36.79148 | 27.09354 | 426 ft | 35 kts | 149° |
| 2026-05-04 20:22 | 36.78928 | 27.09525 | 428 ft | 39 kts | 148° |
| 2026-05-04 20:22 | 36.78688 | 27.09712 | 430 ft | 42 kts | 148° |
| 2026-05-04 20:22 | 36.78574 | 27.09765 | 422 ft | 0 kts | 173° |
| 2026-05-04 20:23 | 36.78566 | 27.09766 | 425 ft | 4 kts | 170° |
| 2026-05-04 20:23 | 36.78549 | 27.09790 | 419 ft | 3 kts | 108° |
| 2026-05-04 20:23 | 36.78553 | 27.09814 | 426 ft | 2 kts | 40° |
| 2026-05-04 20:23 | 36.78569 | 27.09809 | 425 ft | 4 kts | 328° |
| 2026-05-04 20:24 | 36.78661 | 27.09738 | 435 ft | 45 kts | 328° |
| 2026-05-04 20:24 | 36.79196 | 27.09330 | 424 ft | 135 kts | 329° |
| 2026-05-04 20:24 | 36.80136 | 27.08600 | 812 ft | 172 kts | 329° |
| 2026-05-04 20:24 | 36.81166 | 27.07766 | 1733 ft | 182 kts | 323° |
| 2026-05-04 20:25 | 36.81749 | 27.06326 | 2542 ft | 199 kts | 276° |
| 2026-05-04 20:25 | 36.81288 | 27.04685 | 3466 ft | 217 kts | 234° |
| 2026-05-04 20:25 | 36.80188 | 27.03322 | 4494 ft | 225 kts | 232° |
| 2026-05-04 20:25 | 36.79566 | 27.01623 | 5569 ft | 213 kts | 273° |
| 2026-05-04 20:26 | 36.79714 | 26.99825 | 6641 ft | 207 kts | 286° |
| 2026-05-04 20:26 | 36.80012 | 26.98056 | 7591 ft | 209 kts | 287° |
| 2026-05-04 20:26 | 36.80293 | 26.96271 | 8567 ft | 211 kts | 286° |
| 2026-05-04 20:26 | 36.80542 | 26.94461 | 9550 ft | 213 kts | 285° |
| 2026-05-04 20:27 | 36.80768 | 26.92624 | 10450 ft | 215 kts | 284° |
| 2026-05-04 20:27 | 36.80981 | 26.90762 | 11324 ft | 218 kts | 284° |
| 2026-05-04 20:27 | 36.81188 | 26.88873 | 12213 ft | 221 kts | 284° |
| 2026-05-04 20:27 | 36.81393 | 26.86959 | 13101 ft | 224 kts | 284° |
| 2026-05-04 20:28 | 36.81598 | 26.85018 | 13944 ft | 228 kts | 284° |
| 2026-05-04 20:28 | 36.81805 | 26.83045 | 14692 ft | 231 kts | 284° |
| 2026-05-04 20:28 | 36.82012 | 26.81054 | 15478 ft | 232 kts | 284° |
| 2026-05-04 20:28 | 36.82219 | 26.79047 | 16252 ft | 234 kts | 285° |
| 2026-05-04 20:29 | 36.82429 | 26.77023 | 17024 ft | 236 kts | 285° |
| 2026-05-04 20:29 | 36.82634 | 26.74981 | 17807 ft | 239 kts | 284° |
| 2026-05-04 20:29 | 36.82789 | 26.72902 | 18578 ft | 242 kts | 283° |
| 2026-05-04 20:29 | 36.82924 | 26.70796 | 19239 ft | 245 kts | 284° |
| 2026-05-04 20:30 | 36.83207 | 26.68701 | 19856 ft | 245 kts | 292° |
| 2026-05-04 20:30 | 36.83728 | 26.66677 | 20493 ft | 246 kts | 297° |
| 2026-05-04 20:30 | 36.84361 | 26.64674 | 21128 ft | 249 kts | 299° |
| 2026-05-04 20:30 | 36.85066 | 26.62649 | 21573 ft | 262 kts | 300° |
| 2026-05-04 20:31 | 36.85845 | 26.60501 | 21832 ft | 281 kts | 300° |
| 2026-05-04 20:31 | 36.86678 | 26.58203 | 22082 ft | 300 kts | 299° |
| 2026-05-04 20:31 | 36.87512 | 26.55724 | 22317 ft | 322 kts | 292° |
| 2026-05-04 20:31 | 36.87758 | 26.52826 | 22544 ft | 353 kts | 270° |
| 2026-05-04 20:32 | 36.87134 | 26.49748 | 22792 ft | 380 kts | 255° |
| 2026-05-04 20:32 | 36.86149 | 26.46610 | 23070 ft | 394 kts | 255° |
| 2026-05-04 20:32 | 36.85308 | 26.43325 | 23530 ft | 400 kts | 260° |
| 2026-05-04 20:32 | 36.84648 | 26.39931 | 24034 ft | 404 kts | 263° |
| 2026-05-04 20:33 | 36.84133 | 26.36521 | 24536 ft | 407 kts | 265° |
| 2026-05-04 20:33 | 36.83647 | 26.33026 | 25044 ft | 411 kts | 265° |
| 2026-05-04 20:33 | 36.83166 | 26.29496 | 25546 ft | 414 kts | 265° |
| 2026-05-04 20:33 | 36.82689 | 26.25931 | 25920 ft | 418 kts | 265° |
| 2026-05-04 20:34 | 36.82221 | 26.22351 | 26015 ft | 418 kts | 265° |
| 2026-05-04 20:34 | 36.81763 | 26.18764 | 26020 ft | 419 kts | 266° |
| 2026-05-04 20:34 | 36.81624 | 26.15164 | 26027 ft | 413 kts | 278° |
| 2026-05-04 20:34 | 36.82006 | 26.11631 | 26036 ft | 410 kts | 284° |
| 2026-05-04 20:35 | 36.82532 | 26.08141 | 26024 ft | 410 kts | 285° |
| 2026-05-04 20:35 | 36.83071 | 26.04650 | 26039 ft | 410 kts | 285° |
| 2026-05-04 20:35 | 36.83611 | 26.01157 | 26028 ft | 410 kts | 285° |
| 2026-05-04 20:35 | 36.84150 | 25.97668 | 26040 ft | 410 kts | 285° |
| 2026-05-04 20:36 | 36.84716 | 25.94181 | 26016 ft | 408 kts | 288° |
| 2026-05-04 20:36 | 36.85604 | 25.90838 | 26030 ft | 404 kts | 296° |
| 2026-05-04 20:36 | 36.86766 | 25.87655 | 26035 ft | 403 kts | 299° |
| 2026-05-04 20:36 | 36.87977 | 25.84497 | 26033 ft | 403 kts | 299° |
| 2026-05-04 20:37 | 36.89192 | 25.81340 | 26036 ft | 403 kts | 299° |
| 2026-05-04 20:37 | 36.90409 | 25.78181 | 26033 ft | 403 kts | 299° |
| 2026-05-04 20:37 | 36.91626 | 25.75021 | 26039 ft | 403 kts | 299° |
| 2026-05-04 20:37 | 36.92843 | 25.71860 | 26037 ft | 403 kts | 299° |
| 2026-05-04 20:38 | 36.94058 | 25.68703 | 26039 ft | 403 kts | 299° |
| 2026-05-04 20:38 | 36.95273 | 25.65543 | 26037 ft | 403 kts | 299° |
| 2026-05-04 20:38 | 36.96493 | 25.62380 | 26029 ft | 404 kts | 299° |
| 2026-05-04 20:38 | 36.97731 | 25.59228 | 26036 ft | 404 kts | 299° |
| 2026-05-04 20:39 | 36.98958 | 25.56114 | 26041 ft | 404 kts | 299° |
| 2026-05-04 20:39 | 36.99799 | 25.53983 | 26041 ft | 404 kts | 299° |
| 2026-05-04 20:39 | 37.01039 | 25.50834 | 26040 ft | 404 kts | 299° |
| 2026-05-04 20:39 | 37.02723 | 25.46687 | 26042 ft | 402 kts | 302° |
| 2026-05-04 20:40 | 37.04098 | 25.43643 | 26040 ft | 402 kts | 302° |
| 2026-05-04 20:40 | 37.05481 | 25.40596 | 26040 ft | 402 kts | 302° |
| 2026-05-04 20:40 | 37.06419 | 25.38543 | 26045 ft | 402 kts | 302° |
| 2026-05-04 20:40 | 37.08263 | 25.34520 | 26045 ft | 402 kts | 302° |
| 2026-05-04 20:41 | 37.09204 | 25.32469 | 26028 ft | 402 kts | 302° |
| 2026-05-04 20:41 | 37.10582 | 25.29470 | 26050 ft | 403 kts | 302° |
| 2026-05-04 20:41 | 37.11997 | 25.26391 | 26051 ft | 403 kts | 302° |
| 2026-05-04 20:41 | 37.13378 | 25.23384 | 26050 ft | 403 kts | 302° |
| 2026-05-04 20:42 | 37.14859 | 25.20408 | 26048 ft | 401 kts | 310° |
| 2026-05-04 20:42 | 37.16807 | 25.17938 | 26053 ft | 397 kts | 323° |
| 2026-05-04 20:42 | 37.19016 | 25.15865 | 26051 ft | 397 kts | 326° |
| 2026-05-04 20:42 | 37.21265 | 25.13849 | 26052 ft | 397 kts | 326° |
| 2026-05-04 20:43 | 37.23518 | 25.11837 | 26050 ft | 397 kts | 326° |
| 2026-05-04 20:43 | 37.25768 | 25.09828 | 26051 ft | 397 kts | 326° |
| 2026-05-04 20:43 | 37.28023 | 25.07815 | 26053 ft | 398 kts | 326° |
| 2026-05-04 20:43 | 37.30280 | 25.05801 | 26053 ft | 398 kts | 326° |
| 2026-05-04 20:44 | 37.32537 | 25.03786 | 26051 ft | 398 kts | 326° |
| 2026-05-04 20:44 | 37.34798 | 25.01769 | 26052 ft | 398 kts | 326° |
| 2026-05-04 20:44 | 37.37055 | 24.99757 | 26045 ft | 399 kts | 326° |
| 2026-05-04 20:44 | 37.39217 | 24.97560 | 26050 ft | 402 kts | 316° |
| 2026-05-04 20:45 | 37.41097 | 24.94960 | 25915 ft | 400 kts | 310° |
| 2026-05-04 20:45 | 37.42636 | 24.92086 | 25620 ft | 394 kts | 300° |
| 2026-05-04 20:45 | 37.43705 | 24.88941 | 25247 ft | 390 kts | 291° |
| 2026-05-04 20:45 | 37.44487 | 24.85671 | 24714 ft | 391 kts | 288° |
| 2026-05-04 20:46 | 37.45188 | 24.82368 | 24196 ft | 389 kts | 287° |
| 2026-05-04 20:46 | 37.45862 | 24.79080 | 23738 ft | 387 kts | 287° |
| 2026-05-04 20:46 | 37.46527 | 24.75811 | 23187 ft | 384 kts | 287° |
| 2026-05-04 20:46 | 37.47183 | 24.72567 | 22716 ft | 380 kts | 287° |
| 2026-05-04 20:47 | 37.47826 | 24.69376 | 22379 ft | 372 kts | 287° |
| 2026-05-04 20:47 | 37.48452 | 24.66264 | 22131 ft | 362 kts | 287° |
| 2026-05-04 20:47 | 37.49063 | 24.63223 | 21784 ft | 356 kts | 287° |
| 2026-05-04 20:47 | 37.49667 | 24.60222 | 21445 ft | 350 kts | 287° |
| 2026-05-04 20:48 | 37.50252 | 24.57299 | 21239 ft | 340 kts | 287° |
| 2026-05-04 20:48 | 37.50728 | 24.54365 | 20545 ft | 347 kts | 279° |
| 2026-05-04 20:48 | 37.50796 | 24.51276 | 19810 ft | 357 kts | 272° |
| 2026-05-04 20:48 | 37.50714 | 24.48148 | 19284 ft | 357 kts | 271° |
| 2026-05-04 20:49 | 37.50617 | 24.45036 | 18822 ft | 355 kts | 271° |
| 2026-05-04 20:49 | 37.50518 | 24.41942 | 18325 ft | 353 kts | 271° |
| 2026-05-04 20:49 | 37.50418 | 24.38827 | 17390 ft | 360 kts | 271° |
| 2026-05-04 20:49 | 37.50328 | 24.35664 | 16316 ft | 372 kts | 271° |
| 2026-05-04 20:50 | 37.50246 | 24.32322 | 15248 ft | 382 kts | 271° |
| 2026-05-04 20:50 | 37.50168 | 24.28945 | 14228 ft | 389 kts | 271° |
| 2026-05-04 20:50 | 37.50092 | 24.25516 | 13198 ft | 394 kts | 271° |
| 2026-05-04 20:50 | 37.50010 | 24.22153 | 12739 ft | 383 kts | 271° |
| 2026-05-04 20:51 | 37.49918 | 24.18830 | 12475 ft | 367 kts | 271° |
| 2026-05-04 20:51 | 37.49821 | 24.15689 | 12245 ft | 351 kts | 271° |
| 2026-05-04 20:51 | 37.49721 | 24.12718 | 12038 ft | 337 kts | 271° |
| 2026-05-04 20:51 | 37.49614 | 24.09845 | 11640 ft | 322 kts | 271° |
| 2026-05-04 20:52 | 37.49502 | 24.07068 | 11115 ft | 312 kts | 271° |
| 2026-05-04 20:52 | 37.49388 | 24.04409 | 10847 ft | 295 kts | 271° |
| 2026-05-04 20:52 | 37.49279 | 24.01900 | 10646 ft | 279 kts | 271° |
| 2026-05-04 20:52 | 37.49177 | 23.99529 | 10470 ft | 264 kts | 271° |
| 2026-05-04 20:53 | 37.49073 | 23.97288 | 10312 ft | 249 kts | 271° |
| 2026-05-04 20:53 | 37.48966 | 23.95169 | 10148 ft | 237 kts | 271° |
| 2026-05-04 20:53 | 37.48857 | 23.93131 | 10008 ft | 229 kts | 271° |
| 2026-05-04 20:53 | 37.49064 | 23.91204 | 10051 ft | 219 kts | 300° |
| 2026-05-04 20:54 | 37.49934 | 23.89678 | 10065 ft | 214 kts | 316° |
| 2026-05-04 20:54 | 37.51049 | 23.88442 | 9896 ft | 214 kts | 325° |
| 2026-05-04 20:54 | 37.52258 | 23.87333 | 9442 ft | 218 kts | 327° |
| 2026-05-04 20:54 | 37.53517 | 23.86252 | 9110 ft | 217 kts | 329° |
| 2026-05-04 20:55 | 37.54756 | 23.85213 | 8911 ft | 211 kts | 329° |
| 2026-05-04 20:55 | 37.55976 | 23.84204 | 8638 ft | 209 kts | 330° |
| 2026-05-04 20:55 | 37.57190 | 23.83207 | 8278 ft | 208 kts | 330° |
| 2026-05-04 20:55 | 37.58404 | 23.82214 | 7869 ft | 208 kts | 330° |
| 2026-05-04 20:56 | 37.59629 | 23.81214 | 7343 ft | 214 kts | 331° |
| 2026-05-04 20:56 | 37.60916 | 23.80168 | 6715 ft | 224 kts | 331° |
| 2026-05-04 20:56 | 37.62235 | 23.79093 | 6193 ft | 227 kts | 331° |
| 2026-05-04 20:56 | 37.63560 | 23.78010 | 5728 ft | 227 kts | 331° |
| 2026-05-04 20:57 | 37.64950 | 23.77107 | 5268 ft | 223 kts | 344° |
| 2026-05-04 20:57 | 37.66457 | 23.76719 | 4797 ft | 221 kts | 357° |
| 2026-05-04 20:57 | 37.67987 | 23.76649 | 4329 ft | 220 kts | 1° |
| 2026-05-04 20:57 | 37.69512 | 23.76665 | 3905 ft | 220 kts | 1° |
| 2026-05-04 20:58 | 37.71044 | 23.76705 | 3582 ft | 220 kts | 1° |
| 2026-05-04 20:58 | 37.72568 | 23.76775 | 3282 ft | 218 kts | 5° |
| 2026-05-04 20:58 | 37.74033 | 23.77208 | 3199 ft | 217 kts | 22° |
| 2026-05-04 20:58 | 37.75345 | 23.78164 | 3198 ft | 219 kts | 33° |
| 2026-05-04 20:59 | 37.76583 | 23.79304 | 3197 ft | 221 kts | 35° |
| 2026-05-04 20:59 | 37.77792 | 23.80462 | 3197 ft | 222 kts | 36° |
| 2026-05-04 20:59 | 37.79022 | 23.81640 | 3197 ft | 222 kts | 35° |
| 2026-05-04 20:59 | 37.80218 | 23.82784 | 3196 ft | 208 kts | 35° |
| 2026-05-04 21:00 | 37.81337 | 23.83849 | 3209 ft | 195 kts | 35° |
| 2026-05-04 21:00 | 37.82382 | 23.84840 | 2983 ft | 183 kts | 34° |
| 2026-05-04 21:00 | 37.83394 | 23.85801 | 2600 ft | 181 kts | 34° |
| 2026-05-04 21:00 | 37.84401 | 23.86758 | 2334 ft | 181 kts | 35° |
| 2026-05-04 21:01 | 37.85366 | 23.87676 | 2087 ft | 167 kts | 35° |
| 2026-05-04 21:01 | 37.86259 | 23.88526 | 1873 ft | 154 kts | 35° |
| 2026-05-04 21:01 | 37.87086 | 23.89313 | 1681 ft | 145 kts | 35° |
| 2026-05-04 21:01 | 37.87881 | 23.90069 | 1484 ft | 142 kts | 35° |
| 2026-05-04 21:02 | 37.88640 | 23.90791 | 1305 ft | 131 kts | 35° |
| 2026-05-04 21:02 | 37.89353 | 23.91471 | 1110 ft | 127 kts | 35° |
| 2026-05-04 21:02 | 37.90061 | 23.92145 | 931 ft | 128 kts | 35° |
| 2026-05-04 21:02 | 37.90774 | 23.92824 | 749 ft | 128 kts | 36° |
| 2026-05-04 21:03 | 37.91486 | 23.93502 | 577 ft | 128 kts | 35° |
| 2026-05-04 21:03 | 37.92197 | 23.94180 | 402 ft | 128 kts | 36° |
| 2026-05-04 21:03 | 37.92900 | 23.94857 | 301 ft | 120 kts | 36° |
| 2026-05-04 21:03 | 37.93424 | 23.95345 | 291 ft | 55 kts | 36° |
| 2026-05-04 21:04 | 37.93663 | 23.95566 | 287 ft | 24 kts | 36° |
| 2026-05-04 21:04 | 37.93753 | 23.95569 | 284 ft | 5 kts | 309° |
| 2026-05-04 21:04 | 37.93789 | 23.95514 | 297 ft | 11 kts | 309° |
| 2026-05-04 21:04 | 37.93838 | 23.95438 | 301 ft | 9 kts | 309° |
| 2026-05-04 21:05 | 37.93878 | 23.95375 | 304 ft | 11 kts | 308° |
| 2026-05-04 21:05 | 37.93926 | 23.95298 | 306 ft | 11 kts | 308° |
| 2026-05-04 21:05 | 37.93969 | 23.95244 | 305 ft | 3 kts | 356° |
| 2026-05-04 21:05 | 37.93989 | 23.95259 | 304 ft | 5 kts | 38° |
| 2026-05-04 21:06 | 37.94021 | 23.95290 | 304 ft | 0 kts | 38° |